Terminal Aerodrome Forecast
Issued by NWS

Home | Current Version | Previous Version | Text Only | Print | Product List | Glossary On
Versions: 1 2 3 4 5 6 7 8 9 10 11 12 13
000
FTUS46 KSGX 061741
TAFONT
TAF
KONT 061741Z 0618/0724 VRB04KT P6SM BKN035
     FM062000 24009KT P6SM BKN035
     FM070400 VRB05KT P6SM SCT030 SCT150
      TEMPO 0704/0708 BKN030
     FM071500 03009KT P6SM SCT150
     FM072000 VRB04KT P6SM SKC=

USA.gov is the U.S. government's official web portal to all federal, state and local government web resources and services.